Time;durP1;ratioP1;P1;durP2;ratioP2;P2;SDS_P1;SDS_P2;PMS_P1;PMS_P2;Temp;Humidity;BMP_temperature;BMP_pressure;BME280_temperature;BME280_humidity;BME280_pressure;Samples;Min_cycle;Max_cycle;Signal;HPM_P1;HPM_P2
2022/10/31 00:00:07;;;;;;;32.47;17.98;;;13.20;99.90;;;;;;5002296;28;20061;-69
2022/10/31 00:02:33;;;;;;;29.08;18.17;;;13.30;99.90;;;;;;5001460;28;20046;-68
2022/10/31 00:04:59;;;;;;;28.95;17.90;;;13.30;99.90;;;;;;5005496;28;20589;-68
2022/10/31 00:07:24;;;;;;;28.90;18.27;;;13.20;99.90;;;;;;5006644;28;20500;-68
2022/10/31 00:09:50;;;;;;;28.25;17.73;;;13.10;99.90;;;;;;5006581;28;20096;-69
2022/10/31 00:12:16;;;;;;;27.85;16.48;;;13.30;99.90;;;;;;5005397;28;20182;-68
2022/10/31 00:14:41;;;;;;;30.13;17.77;;;13.20;99.90;;;;;;5020360;28;20064;-69
2022/10/31 00:17:07;;;;;;;32.03;17.60;;;13.00;99.90;;;;;;5006338;28;20139;-69
2022/10/31 00:19:32;;;;;;;30.45;18.73;;;13.10;99.90;;;;;;5006252;28;20041;-68
2022/10/31 00:21:58;;;;;;;33.50;18.92;;;13.00;99.90;;;;;;5005051;28;20668;-68
2022/10/31 00:24:24;;;;;;;30.95;19.17;;;13.10;99.90;;;;;;5005831;28;20500;-68
2022/10/31 00:26:49;;;;;;;30.05;17.88;;;13.10;99.90;;;;;;5006238;28;20038;-68
2022/10/31 00:29:15;;;;;;;29.40;18.85;;;12.90;99.90;;;;;;5020064;28;20046;-68
2022/10/31 00:31:41;;;;;;;30.88;18.80;;;13.00;99.90;;;;;;5005216;28;20116;-68
2022/10/31 00:34:06;;;;;;;37.78;19.63;;;12.80;99.90;;;;;;5006188;28;20069;-68
2022/10/31 00:36:32;;;;;;;32.33;19.02;;;13.00;99.90;;;;;;5021198;28;20670;-68
2022/10/31 00:38:58;;;;;;;34.65;19.77;;;12.80;99.90;;;;;;5004629;28;20049;-69
2022/10/31 00:41:24;;;;;;;34.00;19.20;;;13.00;99.90;;;;;;5005694;28;20392;-68
2022/10/31 00:43:49;;;;;;;34.13;19.38;;;12.80;99.90;;;;;;5020737;28;20056;-68
2022/10/31 00:46:15;;;;;;;33.53;20.05;;;12.90;99.90;;;;;;5006109;28;20034;-69
2022/10/31 00:48:41;;;;;;;29.83;19.33;;;12.80;99.90;;;;;;5006656;28;20134;-68
2022/10/31 00:51:07;;;;;;;33.53;20.92;;;12.70;99.90;;;;;;5004918;28;20073;-70
2022/10/31 00:53:33;;;;;;;35.00;19.42;;;12.80;99.90;;;;;;5005659;28;20100;-68
2022/10/31 00:55:58;;;;;;;33.40;18.77;;;12.60;99.90;;;;;;5005193;28;20483;-69
2022/10/31 00:58:24;;;;;;;35.58;20.00;;;12.50;99.90;;;;;;5004271;28;20042;-67
2022/10/31 01:00:56;;;;;;;37.13;19.70;;;12.70;99.90;;;;;;5005623;28;20129;-68
2022/10/31 01:03:30;;;;;;;31.33;19.33;;;12.60;99.90;;;;;;5005342;28;20052;-68
2022/10/31 01:06:03;;;;;;;28.95;19.38;;;12.50;99.90;;;;;;5004702;28;20476;-68
2022/10/31 01:08:29;;;;;;;29.13;17.95;;;12.60;99.90;;;;;;5004218;28;20512;-68
2022/10/31 01:11:16;;;;;;;28.40;18.10;;;12.50;99.90;;;;;;5006084;28;20136;-67
2022/10/31 01:13:42;;;;;;;30.20;19.67;;;12.60;99.90;;;;;;5004969;28;20049;-68
2022/10/31 01:16:11;;;;;;;33.85;20.83;;;12.50;99.90;;;;;;5003745;28;20050;-68
2022/10/31 01:18:37;;;;;;;34.55;22.13;;;12.50;99.90;;;;;;5005135;28;20827;-67
2022/10/31 01:21:09;;;;;;;40.08;24.00;;;12.60;99.90;;;;;;5004741;28;20050;-69
2022/10/31 01:23:35;;;;;;;35.20;22.98;;;12.50;99.90;;;;;;5005292;28;20046;-68
2022/10/31 01:26:11;;;;;;;41.75;23.33;;;12.50;99.90;;;;;;5003712;28;20049;-68
2022/10/31 01:28:39;;;;;;;36.53;22.35;;;12.30;99.90;;;;;;5003987;28;20048;-68
2022/10/31 01:31:07;;;;;;;37.45;22.52;;;12.40;99.90;;;;;;5004430;28;20034;-69
2022/10/31 01:33:33;;;;;;;38.38;22.00;;;12.40;99.90;;;;;;5004201;28;20492;-68
2022/10/31 01:35:58;;;;;;;39.90;21.88;;;12.20;99.90;;;;;;5004003;28;20081;-68
2022/10/31 01:38:24;;;;;;;31.00;20.98;;;12.30;99.90;;;;;;5003847;28;20088;-68
2022/10/31 01:40:51;;;;;;;34.30;21.27;;;12.30;99.90;;;;;;5019748;28;20107;-68
2022/10/31 01:43:17;;;;;;;32.20;21.77;;;12.20;99.90;;;;;;5003456;28;20046;-68
2022/10/31 01:45:45;;;;;;;38.25;21.58;;;12.30;99.90;;;;;;5004547;28;20475;-68
2022/10/31 01:48:18;;;;;;;38.75;23.30;;;12.10;99.90;;;;;;5005132;28;20128;-68
2022/10/31 01:50:46;;;;;;;36.00;21.50;;;12.00;99.90;;;;;;5004141;28;20053;-68
2022/10/31 01:53:12;;;;;;;34.97;22.40;;;12.20;99.90;;;;;;5003880;28;20036;-68
2022/10/31 01:55:43;;;;;;;36.85;22.77;;;12.10;99.90;;;;;;5003596;28;20579;-68
2022/10/31 01:58:16;;;;;;;35.65;21.50;;;12.20;99.90;;;;;;5002180;28;20472;-68
2022/10/31 02:00:45;;;;;;;31.85;20.40;;;12.10;99.90;;;;;;5004239;28;20116;-68
2022/10/31 02:03:11;;;;;;;38.05;21.77;;;12.10;99.90;;;;;;5018547;28;20037;-68
2022/10/31 02:05:37;;;;;;;36.03;21.13;;;12.00;99.90;;;;;;5002110;28;20038;-67
2022/10/31 02:08:10;;;;;;;39.72;21.55;;;12.00;99.90;;;;;;5002394;28;20046;-68
2022/10/31 02:10:37;;;;;;;34.08;21.02;;;12.00;99.90;;;;;;5002244;28;20104;-68
2022/10/31 02:13:05;;;;;;;35.53;19.83;;;12.10;99.90;;;;;;5001967;28;20072;-67
2022/10/31 02:15:32;;;;;;;32.35;20.27;;;12.00;99.90;;;;;;5003535;28;20046;-69
2022/10/31 02:17:58;;;;;;;32.33;18.08;;;12.10;99.90;;;;;;5002507;28;20050;-67
2022/10/31 02:20:28;;;;;;;32.72;19.77;;;11.90;99.90;;;;;;5003506;28;20045;-68
2022/10/31 02:22:56;;;;;;;30.90;19.00;;;12.00;99.90;;;;;;5001993;28;20093;-68
2022/10/31 02:25:52;;;;;;;30.60;19.90;;;11.90;99.90;;;;;;5002769;28;20100;-68
2022/10/31 02:28:43;;;;;;;;;;;11.80;99.90;;;;;;5001758;28;20185;-67
2022/10/31 02:31:30;;;;;;;31.20;20.50;;;11.90;99.90;;;;;;4972261;28;20018;-67
2022/10/31 02:34:02;;;;;;;36.08;21.27;;;11.90;99.90;;;;;;5002452;28;20420;-67
2022/10/31 02:36:56;;;;;;;33.13;19.85;;;11.80;99.90;;;;;;5003946;28;20050;-68
2022/10/31 02:39:27;;;;;;;32.03;19.25;;;11.70;99.90;;;;;;5002796;28;20058;-68
2022/10/31 02:42:08;;;;;;;32.38;19.70;;;11.60;99.90;;;;;;4985755;28;20046;-68
2022/10/31 02:44:50;;;;;;;30.55;19.30;;;11.60;99.90;;;;;;5004527;28;20125;-70
2022/10/31 02:47:27;;;;;;;30.77;19.13;;;11.60;99.90;;;;;;5001795;28;20159;-68
2022/10/31 02:50:09;;;;;;;34.13;20.40;;;11.60;99.90;;;;;;5018514;28;20046;-67
2022/10/31 02:52:35;;;;;;;30.48;21.15;;;11.50;99.90;;;;;;5000978;28;20045;-68
2022/10/31 02:55:24;;;;;;;35.10;21.05;;;11.40;99.90;;;;;;5002387;28;20435;-68
2022/10/31 02:57:55;;;;;;;33.70;20.60;;;11.50;99.90;;;;;;5002726;28;20506;-68
2022/10/31 03:00:21;;;;;;;32.45;21.33;;;11.40;99.90;;;;;;5017764;28;20192;-68
2022/10/31 03:02:56;;;;;;;36.10;21.20;;;11.50;99.90;;;;;;5002003;28;20711;-68
2022/10/31 03:05:25;;;;;;;35.78;22.25;;;11.30;99.90;;;;;;5002403;28;20084;-68
2022/10/31 03:08:15;;;;;;;37.22;21.67;;;11.40;99.90;;;;;;5003067;28;20669;-68
2022/10/31 03:11:01;;;;;;;31.70;20.67;;;11.20;99.90;;;;;;5001968;28;20048;-69
2022/10/31 03:13:46;;;;;;;38.75;22.65;;;11.30;99.90;;;;;;5002491;28;20133;-69
2022/10/31 03:16:16;;;;;;;32.00;21.02;;;11.10;99.90;;;;;;5002667;28;20466;-68
2022/10/31 03:18:50;;;;;;;36.75;21.65;;;11.10;99.90;;;;;;5003451;28;20132;-69
2022/10/31 03:21:22;;;;;;;41.45;21.58;;;11.30;99.90;;;;;;5002309;28;20518;-68
2022/10/31 03:23:50;;;;;;;31.88;20.73;;;11.20;99.90;;;;;;5001625;28;20393;-68
2022/10/31 03:26:17;;;;;;;32.60;21.05;;;11.10;99.90;;;;;;5003623;28;20049;-68
2022/10/31 03:28:53;;;;;;;35.50;21.10;;;11.00;99.90;;;;;;5001904;28;20073;-68
2022/10/31 03:31:26;;;;;;;33.05;21.40;;;11.10;99.90;;;;;;5001270;28;20050;-68
2022/10/31 03:33:53;;;;;;;31.52;21.20;;;11.00;99.90;;;;;;5002882;28;20057;-68
2022/10/31 03:36:20;;;;;;;34.53;21.63;;;11.00;99.90;;;;;;5002863;28;20085;-68
2022/10/31 03:38:47;;;;;;;32.92;20.80;;;11.00;99.90;;;;;;5001001;28;20161;-68
2022/10/31 03:41:23;;;;;;;29.83;20.88;;;11.00;99.90;;;;;;5001370;28;20077;-68
2022/10/31 03:43:57;;;;;;;33.95;20.63;;;11.10;99.90;;;;;;4984200;28;20251;-68
2022/10/31 03:46:23;;;;;;;32.17;21.27;;;11.10;99.90;;;;;;5002479;28;20041;-68
2022/10/31 03:48:49;;;;;;;37.80;21.67;;;10.90;99.90;;;;;;5002612;28;20053;-69
2022/10/31 03:51:25;;;;;;;36.08;22.27;;;11.00;99.90;;;;;;5001432;28;20444;-68
2022/10/31 03:54:00;;;;;;;32.38;20.42;;;11.00;99.90;;;;;;5002746;28;20045;-69
2022/10/31 03:56:34;;;;;;;32.92;20.90;;;11.00;99.90;;;;;;5002671;28;20445;-69
2022/10/31 03:59:13;;;;;;;32.22;21.63;;;10.70;99.90;;;;;;5001041;28;20088;-68
2022/10/31 04:01:51;;;;;;;33.83;21.58;;;10.70;99.90;;;;;;5002845;28;20411;-68
2022/10/31 04:04:18;;;;;;;30.52;20.90;;;10.70;99.90;;;;;;5000599;28;20057;-68
2022/10/31 04:06:46;;;;;;;34.03;21.02;;;10.70;99.90;;;;;;4999897;28;20046;-69
2022/10/31 04:09:14;;;;;;;35.08;22.88;;;10.90;99.90;;;;;;5002015;28;20046;-68
2022/10/31 04:11:45;;;;;;;35.90;22.45;;;10.90;99.90;;;;;;5001806;28;20137;-69
2022/10/31 04:14:11;;;;;;;34.45;22.63;;;10.90;99.90;;;;;;5000648;28;20054;-68
2022/10/31 04:16:42;;;;;;;37.03;24.42;;;10.70;99.90;;;;;;5001072;28;20046;-68
2022/10/31 04:19:08;;;;;;;37.35;23.30;;;10.60;99.90;;;;;;5000421;28;20125;-68
2022/10/31 04:21:34;;;;;;;35.72;24.05;;;10.60;99.90;;;;;;5002495;28;20547;-68
2022/10/31 04:23:59;;;;;;;41.40;23.50;;;10.60;99.90;;;;;;5002489;28;20882;-68
2022/10/31 04:26:25;;;;;;;39.10;24.30;;;10.70;99.90;;;;;;5002629;28;20727;-68
2022/10/31 04:28:51;;;;;;;39.38;24.75;;;10.50;99.90;;;;;;5001297;28;20037;-68
2022/10/31 04:31:16;;;;;;;37.53;24.27;;;10.60;99.90;;;;;;5002587;28;20103;-68
2022/10/31 04:33:42;;;;;;;40.88;24.25;;;10.50;99.90;;;;;;5000889;28;20671;-69
2022/10/31 04:36:08;;;;;;;40.20;24.85;;;10.50;99.90;;;;;;5000751;28;20514;-68
2022/10/31 04:38:34;;;;;;;39.97;25.08;;;10.40;99.90;;;;;;5000792;28;20049;-68
2022/10/31 04:41:00;;;;;;;39.47;26.65;;;10.40;99.90;;;;;;5000874;28;20086;-68
2022/10/31 04:43:25;;;;;;;41.20;26.00;;;10.40;99.90;;;;;;5001648;28;20037;-68
2022/10/31 04:45:51;;;;;;;41.60;26.85;;;10.40;99.90;;;;;;5016320;28;20061;-68
2022/10/31 04:48:16;;;;;;;44.63;26.23;;;10.50;99.90;;;;;;5001119;28;20053;-68
2022/10/31 04:50:42;;;;;;;42.38;26.55;;;10.30;99.90;;;;;;5003969;28;20045;-68
2022/10/31 04:53:08;;;;;;;41.78;26.58;;;10.50;99.90;;;;;;5004914;28;20042;-68
2022/10/31 04:55:35;;;;;;;44.65;27.23;;;10.50;99.90;;;;;;5003121;28;20072;-69
2022/10/31 04:58:01;;;;;;;42.38;26.15;;;10.40;99.90;;;;;;5004782;28;20041;-68
2022/10/31 05:00:27;;;;;;;42.40;26.42;;;10.30;99.90;;;;;;5005943;28;20056;-68
2022/10/31 05:02:55;;;;;;;43.20;27.00;;;10.40;99.90;;;;;;4987048;28;20091;-67
2022/10/31 05:05:23;;;;;;;38.83;25.88;;;10.30;99.90;;;;;;5003575;28;20506;-68
2022/10/31 05:07:50;;;;;;;45.95;27.48;;;10.40;99.90;;;;;;5004944;28;20042;-68
2022/10/31 05:10:21;;;;;;;40.88;26.13;;;10.20;99.90;;;;;;5004881;28;20092;-68
2022/10/31 05:12:49;;;;;;;42.90;27.17;;;10.20;99.90;;;;;;5004196;28;20057;-68
2022/10/31 05:15:15;;;;;;;42.85;27.38;;;10.20;99.90;;;;;;5004163;28;20053;-68
2022/10/31 05:17:41;;;;;;;40.28;27.05;;;10.20;99.90;;;;;;5005398;28;20042;-68
2022/10/31 05:20:07;;;;;;;40.47;27.33;;;10.10;99.90;;;;;;5004625;28;20048;-68
2022/10/31 05:22:33;;;;;;;37.95;26.20;;;10.20;99.90;;;;;;5004834;28;20045;-68
2022/10/31 05:24:59;;;;;;;43.13;27.48;;;10.30;99.90;;;;;;5003763;28;20053;-68
2022/10/31 05:27:25;;;;;;;39.67;25.85;;;10.20;99.90;;;;;;5003689;28;20038;-68
2022/10/31 05:29:50;;;;;;;41.65;26.40;;;10.20;99.90;;;;;;5004577;28;20042;-68
2022/10/31 05:32:16;;;;;;;39.88;26.15;;;10.30;99.90;;;;;;5005052;28;20038;-68
2022/10/31 05:34:41;;;;;;;39.05;27.33;;;10.30;99.90;;;;;;5005198;28;20042;-68
2022/10/31 05:37:07;;;;;;;39.15;26.45;;;10.30;99.90;;;;;;5003857;28;20061;-67
2022/10/31 05:39:33;;;;;;;42.30;27.50;;;10.30;99.90;;;;;;5004723;28;20073;-68
2022/10/31 05:41:58;;;;;;;39.38;26.50;;;10.10;99.90;;;;;;5002873;28;20069;-68
2022/10/31 05:44:24;;;;;;;39.67;26.08;;;10.20;99.90;;;;;;5004460;28;20042;-68
2022/10/31 05:46:49;;;;;;;42.20;27.60;;;10.20;99.90;;;;;;5004636;28;20046;-68
2022/10/31 05:49:17;;;;;;;44.00;27.42;;;10.30;99.90;;;;;;5004686;28;20042;-68
2022/10/31 05:51:42;;;;;;;44.85;28.05;;;10.20;99.90;;;;;;5004650;28;20042;-68
2022/10/31 05:54:08;;;;;;;39.58;27.48;;;10.20;99.90;;;;;;5004032;28;20062;-68
2022/10/31 05:56:34;;;;;;;42.92;28.20;;;10.20;99.90;;;;;;5003597;28;20046;-68
2022/10/31 05:58:59;;;;;;;43.70;27.80;;;10.20;99.90;;;;;;5004382;28;20049;-67
2022/10/31 06:01:25;;;;;;;41.17;26.17;;;10.20;99.90;;;;;;5004269;28;20066;-68
2022/10/31 06:03:51;;;;;;;42.50;27.15;;;10.00;99.90;;;;;;5003979;28;20080;-68
2022/10/31 06:06:16;;;;;;;41.08;27.33;;;10.00;99.90;;;;;;5004061;28;20412;-68
2022/10/31 06:08:42;;;;;;;43.42;27.38;;;10.10;99.90;;;;;;5005065;28;20038;-68
2022/10/31 06:11:08;;;;;;;43.28;27.40;;;9.90;99.90;;;;;;5004316;28;20041;-68
2022/10/31 06:13:33;;;;;;;42.05;27.88;;;9.90;99.90;;;;;;5002380;28;20046;-68
2022/10/31 06:15:59;;;;;;;42.50;27.33;;;9.90;99.90;;;;;;5003773;28;20058;-68
2022/10/31 06:18:25;;;;;;;42.13;28.35;;;9.80;99.90;;;;;;5004552;28;20046;-68
2022/10/31 06:20:50;;;;;;;40.08;26.65;;;9.90;99.90;;;;;;5003643;28;20056;-67
2022/10/31 06:23:16;;;;;;;42.42;27.55;;;9.90;99.90;;;;;;5004803;28;20435;-67
2022/10/31 06:25:41;;;;;;;37.65;26.88;;;9.90;99.90;;;;;;5004611;28;20053;-68
2022/10/31 06:28:07;;;;;;;43.70;29.10;;;9.80;99.90;;;;;;5003160;28;20574;-68
2022/10/31 06:30:33;;;;;;;43.30;28.25;;;9.90;99.90;;;;;;5003015;28;20554;-68
2022/10/31 06:33:05;;;;;;;45.53;29.27;;;9.90;99.90;;;;;;5003886;28;20400;-67
2022/10/31 06:35:31;;;;;;;43.03;28.38;;;10.00;99.90;;;;;;5003709;28;20424;-68
2022/10/31 06:37:57;;;;;;;45.28;29.45;;;9.90;99.90;;;;;;5003039;28;20057;-68
2022/10/31 06:40:23;;;;;;;41.45;28.30;;;10.00;99.90;;;;;;5002196;28;20034;-68
2022/10/31 06:43:01;;;;;;;43.33;28.92;;;9.90;99.90;;;;;;4996914;28;20038;-68
2022/10/31 06:45:27;;;;;;;41.50;28.42;;;9.80;99.90;;;;;;4983564;28;20073;-68
2022/10/31 06:47:54;;;;;;;42.10;29.38;;;9.80;99.90;;;;;;4983837;28;20038;-68
2022/10/31 06:50:21;;;;;;;40.95;28.90;;;10.00;99.90;;;;;;4984087;28;20104;-68
2022/10/31 06:52:57;;;;;;;44.63;28.52;;;9.80;99.90;;;;;;4983603;28;20038;-68
2022/10/31 06:55:24;;;;;;;42.88;27.65;;;9.90;99.90;;;;;;4983476;28;20537;-68
2022/10/31 06:57:54;;;;;;;43.95;28.40;;;9.90;99.90;;;;;;4983080;28;20054;-68
2022/10/31 07:00:20;;;;;;;45.55;28.65;;;9.80;99.90;;;;;;4983306;28;20057;-68
2022/10/31 07:03:00;;;;;;;37.53;27.20;;;9.90;99.90;;;;;;4982847;28;20054;-68
2022/10/31 07:05:27;;;;;;;40.20;28.75;;;9.90;99.90;;;;;;4994021;28;20132;-68
2022/10/31 07:07:59;;;;;;;40.05;27.33;;;9.80;99.90;;;;;;5002310;28;20053;-69
2022/10/31 07:10:27;;;;;;;39.13;26.90;;;9.90;99.90;;;;;;5002812;28;20196;-67
2022/10/31 07:12:57;;;;;;;38.85;27.27;;;9.90;99.90;;;;;;5001258;28;20512;-69
2022/10/31 07:15:26;;;;;;;38.78;27.13;;;9.90;99.90;;;;;;5002512;28;20216;-69
2022/10/31 07:17:52;;;;;;;39.08;27.08;;;9.80;99.90;;;;;;5002874;28;20049;-68
2022/10/31 07:20:18;;;;;;;38.00;28.27;;;9.90;99.90;;;;;;5001921;28;20220;-67
2022/10/31 07:22:44;;;;;;;39.72;28.70;;;9.90;99.90;;;;;;5003175;28;20072;-68
2022/10/31 07:25:10;;;;;;;39.63;28.95;;;10.00;99.90;;;;;;5002239;28;20137;-68
2022/10/31 07:27:41;;;;;;;36.53;27.58;;;10.10;99.90;;;;;;5002551;28;20755;-68
2022/10/31 07:30:08;;;;;;;38.00;28.25;;;10.10;99.90;;;;;;5000903;28;20140;-68
2022/10/31 07:32:42;;;;;;;38.60;28.90;;;10.10;99.90;;;;;;5003460;28;20120;-68
2022/10/31 07:35:09;;;;;;;38.95;29.02;;;10.10;99.90;;;;;;5002998;28;20061;-68
2022/10/31 07:37:35;;;;;;;38.30;28.52;;;10.10;99.90;;;;;;5002329;28;20503;-68
2022/10/31 07:40:02;;;;;;;38.67;27.65;;;10.10;99.90;;;;;;5002804;28;20057;-68
2022/10/31 07:42:28;;;;;;;38.67;28.55;;;10.10;99.90;;;;;;5002037;28;20038;-69
2022/10/31 07:44:54;;;;;;;38.75;29.55;;;10.10;99.90;;;;;;5000857;28;20053;-67
2022/10/31 07:47:19;;;;;;;39.28;29.40;;;10.20;99.90;;;;;;5002402;28;20483;-67
2022/10/31 07:49:45;;;;;;;42.55;30.70;;;10.00;99.90;;;;;;5003143;28;20392;-67
2022/10/31 07:52:11;;;;;;;38.35;29.45;;;10.00;99.90;;;;;;5002503;28;20397;-67
2022/10/31 07:54:36;;;;;;;40.20;30.75;;;10.10;99.90;;;;;;4997083;28;20481;-66
2022/10/31 07:57:02;;;;;;;37.60;29.10;;;10.30;99.90;;;;;;5001294;28;20045;-66
2022/10/31 07:59:27;;;;;;;40.08;30.83;;;10.10;99.90;;;;;;5002347;28;20045;-65
2022/10/31 08:01:53;;;;;;;35.22;28.05;;;10.30;99.90;;;;;;5016941;28;20049;-65
2022/10/31 08:04:19;;;;;;;37.88;30.13;;;10.30;99.90;;;;;;5004091;28;20042;-66
2022/10/31 08:06:44;;;;;;;38.22;30.95;;;10.50;99.90;;;;;;5002387;28;20144;-66
2022/10/31 08:09:10;;;;;;;38.42;30.63;;;10.40;99.90;;;;;;5000319;28;20053;-66
2022/10/31 08:11:36;;;;;;;40.70;30.90;;;10.50;99.90;;;;;;5001146;28;20041;-66
2022/10/31 08:14:02;;;;;;;40.17;30.50;;;10.50;99.90;;;;;;5001291;28;20050;-66
2022/10/31 08:16:27;;;;;;;38.33;31.63;;;10.70;99.90;;;;;;5001708;28;20130;-66
2022/10/31 08:18:55;;;;;;;42.58;33.17;;;10.90;99.90;;;;;;5002217;28;20038;-66
2022/10/31 08:21:21;;;;;;;37.50;30.15;;;10.90;99.90;;;;;;5000494;28;20050;-66
2022/10/31 08:23:47;;;;;;;39.60;31.15;;;11.00;99.90;;;;;;5000610;28;20038;-68
2022/10/31 08:26:12;;;;;;;38.25;33.40;;;10.80;99.90;;;;;;5005287;28;20045;-69
2022/10/31 08:28:38;;;;;;;40.55;31.67;;;10.90;99.90;;;;;;5005122;28;20038;-68
2022/10/31 08:31:05;;;;;;;42.90;34.28;;;11.00;99.90;;;;;;5019883;28;20042;-69
2022/10/31 08:33:31;;;;;;;39.25;33.17;;;11.20;99.90;;;;;;4993767;28;20082;-69
2022/10/31 08:35:58;;;;;;;32.53;25.85;;;11.20;99.90;;;;;;4991777;28;20081;-68
2022/10/31 08:38:24;;;;;;;28.15;22.05;;;11.40;99.90;;;;;;5001725;28;20039;-70
2022/10/31 08:40:50;;;;;;;27.95;22.98;;;11.60;99.90;;;;;;4993560;28;20060;-74
2022/10/31 08:43:17;;;;;;;26.05;21.83;;;11.40;99.90;;;;;;4993806;28;20042;-67
2022/10/31 08:45:44;;;;;;;27.08;22.17;;;11.40;99.90;;;;;;4999203;28;20050;-73
2022/10/31 08:48:12;;;;;;;29.10;24.85;;;11.70;99.90;;;;;;4993874;28;20034;-70
2022/10/31 08:50:39;;;;;;;25.23;20.42;;;11.50;99.90;;;;;;4976105;28;20050;-67
2022/10/31 08:53:10;;;;;;;28.50;22.48;;;11.60;99.90;;;;;;4995172;28;20124;-67
2022/10/31 08:55:37;;;;;;;25.83;21.35;;;11.50;99.90;;;;;;4992873;28;20125;-67
2022/10/31 08:58:04;;;;;;;24.95;22.15;;;11.50;99.90;;;;;;4990180;28;20042;-67
2022/10/31 09:00:30;;;;;;;22.02;19.45;;;11.70;99.90;;;;;;4994420;28;20038;-67
2022/10/31 09:03:01;;;;;;;20.48;17.67;;;11.60;99.90;;;;;;4987864;28;20054;-67
2022/10/31 09:05:27;;;;;;;20.17;18.05;;;11.70;99.90;;;;;;4999962;28;20085;-68
2022/10/31 09:07:57;;;;;;;21.13;18.50;;;11.70;99.90;;;;;;5005535;28;20213;-67
2022/10/31 09:10:24;;;;;;;23.42;19.10;;;11.80;99.90;;;;;;5004531;28;20176;-67
2022/10/31 09:12:57;;;;;;;23.95;19.02;;;11.90;99.90;;;;;;5003387;28;20115;-67
2022/10/31 09:15:23;;;;;;;23.08;18.98;;;12.10;99.90;;;;;;5005507;28;20049;-67
2022/10/31 09:17:49;;;;;;;23.67;19.25;;;12.10;99.90;;;;;;5005456;28;20042;-67
2022/10/31 09:20:15;;;;;;;23.92;18.85;;;12.40;99.90;;;;;;5004755;28;20100;-67
2022/10/31 09:22:41;;;;;;;22.42;18.02;;;12.70;99.90;;;;;;5004748;28;20046;-68
2022/10/31 09:25:07;;;;;;;20.92;18.50;;;12.90;99.90;;;;;;5005382;28;20085;-67
2022/10/31 09:27:33;;;;;;;19.55;17.10;;;13.30;99.90;;;;;;5002505;28;20088;-68
2022/10/31 09:29:59;;;;;;;18.65;16.63;;;13.70;99.90;;;;;;5003574;28;20045;-67
2022/10/31 09:32:24;;;;;;;18.38;16.45;;;13.70;99.90;;;;;;5020806;28;20123;-67
2022/10/31 09:34:50;;;;;;;20.00;16.00;;;13.90;99.90;;;;;;5004445;28;20042;-67
2022/10/31 09:37:15;;;;;;;19.45;16.27;;;14.40;99.90;;;;;;5002196;28;20524;-67
2022/10/31 09:39:41;;;;;;;18.45;15.63;;;14.70;99.90;;;;;;5005167;28;20384;-67
2022/10/31 09:42:28;;;;;;;18.25;15.00;;;14.70;99.90;;;;;;5003293;28;20550;-67
2022/10/31 09:45:06;;;;;;;19.23;15.25;;;14.50;99.90;;;;;;5004069;28;20112;-67
2022/10/31 09:47:38;;;;;;;18.50;14.10;;;14.90;99.90;;;;;;4987087;28;20386;-67
2022/10/31 09:50:12;;;;;;;18.33;14.82;;;15.30;99.90;;;;;;5001878;28;20042;-67
2022/10/31 09:52:43;;;;;;;18.58;15.05;;;15.30;99.90;;;;;;5004154;28;20049;-67
2022/10/31 09:55:40;;;;;;;18.48;14.27;;;15.60;99.90;;;;;;4992633;28;20050;-67
2022/10/31 09:58:08;;;;;;;15.48;12.20;;;15.90;99.90;;;;;;5000399;28;20092;-67
2022/10/31 10:00:34;;;;;;;18.13;12.95;;;15.80;99.90;;;;;;5003100;28;20050;-67
2022/10/31 10:03:34;;;;;;;16.88;12.45;;;16.10;99.90;;;;;;5018465;28;20041;-68
2022/10/31 10:06:14;;;;;;;13.98;10.65;;;15.90;99.90;;;;;;5003292;28;20046;-68
2022/10/31 10:08:40;;;;;;;15.75;11.10;;;15.80;99.90;;;;;;4985151;28;20114;-67
2022/10/31 10:12:07;;;;;;;16.10;11.43;;;16.30;99.90;;;;;;4983708;28;20754;-68
2022/10/31 10:14:54;;;;;;;16.25;11.70;;;16.00;99.90;;;;;;4906674;29;20471;-67
2022/10/31 10:17:35;;;;;;;17.55;11.52;;;16.00;99.90;;;;;;4923892;29;20062;-67
2022/10/31 10:20:29;;;;;;;16.20;11.90;;;15.70;99.90;;;;;;4979352;28;20149;-68
2022/10/31 10:23:04;;;;;;;17.88;12.32;;;15.80;99.90;;;;;;4999704;28;20127;-67
2022/10/31 10:25:34;;;;;;;;;;;15.90;99.90;;;;;;5004577;28;20115;-67
2022/10/31 10:28:23;;;;;;;16.20;12.18;;;15.90;99.90;;;;;;5003664;28;19922;-67
2022/10/31 10:31:09;;;;;;;13.98;11.27;;;16.30;99.90;;;;;;5002317;28;20414;-67
2022/10/31 10:34:09;;;;;;;15.65;11.75;;;15.90;99.90;;;;;;4993069;28;20046;-67
2022/10/31 10:36:53;;;;;;;17.15;11.80;;;16.10;99.90;;;;;;4999582;28;20615;-67
2022/10/31 10:39:40;;;;;;;18.08;13.48;;;15.70;99.90;;;;;;5002712;28;20034;-67
2022/10/31 10:48:30;;;;;;;18.77;13.63;;;15.60;99.90;;;;;;5001859;28;20819;-67
2022/10/31 10:50:56;;;;;;;21.33;14.85;;;15.20;99.90;;;;;;4998958;28;20579;-67
2022/10/31 10:53:35;;;;;;;18.92;14.15;;;15.20;99.90;;;;;;5003377;28;20061;-67
2022/10/31 10:56:30;;;;;;;17.25;14.45;;;15.40;99.90;;;;;;5001003;28;20417;-67
2022/10/31 10:58:56;;;;;;;;;;;15.70;99.90;;;;;;5003041;28;20476;-67
2022/10/31 11:01:22;;;;;;;17.20;13.57;;;16.20;99.90;;;;;;5001667;28;20359;-66
2022/10/31 11:03:48;;;;;;;19.98;14.20;;;15.80;99.90;;;;;;5001630;28;20042;-67
2022/10/31 11:06:25;;;;;;;18.65;14.20;;;15.70;99.90;;;;;;4997983;28;20121;-67
2022/10/31 11:08:52;;;;;;;18.13;14.23;;;15.90;99.90;;;;;;5001516;28;20583;-68
2022/10/31 11:11:17;;;;;;;17.85;13.18;;;16.00;99.90;;;;;;5001389;28;20489;-67
2022/10/31 11:13:46;;;;;;;17.30;13.10;;;15.90;99.90;;;;;;5001909;28;20065;-67
2022/10/31 11:16:15;;;;;;;17.23;12.85;;;15.90;99.90;;;;;;5002063;28;20049;-67
2022/10/31 11:18:44;;;;;;;18.33;11.65;;;15.90;99.90;;;;;;4990608;28;20421;-67
2022/10/31 11:21:33;;;;;;;16.23;11.13;;;15.70;99.90;;;;;;4989666;28;20069;-68
2022/10/31 11:24:11;;;;;;;15.63;11.20;;;15.60;99.90;;;;;;4999462;28;20046;-67
2022/10/31 11:26:42;;;;;;;17.00;11.20;;;15.50;99.90;;;;;;5000858;28;20037;-68
2022/10/31 11:29:21;;;;;;;17.13;11.98;;;15.40;99.90;;;;;;5001093;28;20541;-68
2022/10/31 11:31:48;;;;;;;15.73;11.18;;;15.40;99.90;;;;;;5000378;28;20144;-68
2022/10/31 11:34:37;;;;;;;16.40;10.93;;;15.50;99.90;;;;;;5001711;28;20188;-68
2022/10/31 11:37:14;;;;;;;15.10;10.55;;;15.60;99.90;;;;;;4997892;28;20103;-67
2022/10/31 11:39:53;;;;;;;14.90;10.82;;;15.50;99.90;;;;;;4988683;28;20038;-68
2022/10/31 11:42:20;;;;;;;14.27;10.30;;;15.60;99.90;;;;;;4992496;28;20133;-68
2022/10/31 11:44:46;;;;;;;15.65;10.50;;;15.80;99.90;;;;;;5002728;28;20064;-68
2022/10/31 11:47:16;;;;;;;16.95;10.80;;;15.90;99.90;;;;;;5003185;28;20046;-68
2022/10/31 11:49:44;;;;;;;13.73;8.63;;;16.10;99.90;;;;;;5001678;28;20038;-68
2022/10/31 11:52:31;;;;;;;13.93;8.80;;;15.90;99.90;;;;;;5002458;28;20092;-67
2022/10/31 11:55:12;;;;;;;14.45;8.85;;;15.90;99.90;;;;;;5001329;28;20041;-65
2022/10/31 11:57:51;;;;;;;13.23;9.07;;;15.90;99.90;;;;;;4999815;28;20049;-66
2022/10/31 12:00:31;;;;;;;15.25;8.52;;;16.00;99.90;;;;;;5004312;28;20132;-65
2022/10/31 12:03:21;;;;;;;13.18;8.00;;;16.00;99.90;;;;;;5005580;28;20042;-67
2022/10/31 12:05:56;;;;;;;11.25;6.72;;;16.00;99.90;;;;;;5005238;28;20135;-66
2022/10/31 12:08:28;;;;;;;11.93;7.13;;;15.80;99.90;;;;;;5006282;28;20053;-66
2022/10/31 12:11:12;;;;;;;12.88;7.90;;;15.90;99.90;;;;;;5005438;28;20042;-67
2022/10/31 12:13:51;;;;;;;12.23;8.67;;;15.80;99.90;;;;;;5006381;28;20176;-66
2022/10/31 12:16:20;;;;;;;13.98;8.68;;;15.90;99.90;;;;;;5003756;28;20900;-67
2022/10/31 12:19:09;;;;;;;15.35;9.70;;;16.00;99.90;;;;;;5006440;28;20061;-66
2022/10/31 12:21:53;;;;;;;12.82;8.77;;;16.00;99.90;;;;;;5004004;28;20041;-67
2022/10/31 12:24:39;;;;;;;14.77;9.35;;;16.00;99.90;;;;;;5006460;28;20498;-67
2022/10/31 12:27:23;;;;;;;16.35;11.27;;;16.00;99.90;;;;;;5005191;28;20449;-67
2022/10/31 12:29:52;;;;;;;15.90;12.30;;;16.00;99.90;;;;;;5005519;28;20042;-68
2022/10/31 12:32:30;;;;;;;17.40;10.43;;;16.10;99.90;;;;;;5004190;28;20544;-67
2022/10/31 12:35:17;;;;;;;16.45;11.38;;;16.30;99.90;;;;;;5006100;28;20042;-66
2022/10/31 12:38:05;;;;;;;17.38;12.27;;;16.40;99.90;;;;;;5004894;28;20042;-67
2022/10/31 12:40:58;;;;;;;16.30;11.32;;;16.30;99.90;;;;;;5005304;28;20389;-67
2022/10/31 12:43:42;;;;;;;16.15;11.38;;;16.40;99.90;;;;;;5004996;28;20168;-67
2022/10/31 12:46:19;;;;;;;18.33;10.45;;;16.10;99.90;;;;;;5004663;28;20041;-67
2022/10/31 12:49:20;;;;;;;13.43;9.25;;;16.10;99.90;;;;;;5004805;28;20472;-67
2022/10/31 12:52:14;;;;;;;16.73;10.02;;;16.10;99.90;;;;;;5000498;28;20062;-63